createdAt,value
2023-05-19T00:00:54.963Z,185.92
2023-05-19T00:01:55.208Z,186.68
2023-05-19T00:02:55.065Z,187.43
2023-05-19T00:03:55.033Z,183.75
2023-05-19T00:04:55.057Z,181.06
2023-05-19T00:05:55.047Z,181.17
2023-05-19T00:06:55.225Z,183.37
2023-05-19T00:07:55.084Z,184.40
2023-05-19T00:08:55.012Z,184.78
2023-05-19T00:09:55.150Z,185.48
2023-05-19T00:10:56.140Z,189.20
2023-05-19T00:11:55.161Z,194.45
2023-05-19T00:12:55.391Z,197.08
2023-05-19T00:13:56.331Z,199.67
2023-05-19T00:14:55.218Z,201.32
2023-05-19T00:15:55.610Z,201.58
2023-05-19T00:16:56.338Z,207.38
2023-05-19T00:17:56.468Z,209.63
2023-05-19T00:18:56.609Z,210.92
2023-05-19T00:19:55.355Z,219.96
2023-05-19T00:20:55.473Z,222.65
2023-05-19T00:21:55.645Z,220.68
2023-05-19T00:22:55.602Z,223.25
2023-05-19T00:23:55.427Z,233.65
2023-05-19T00:24:55.408Z,242.94
2023-05-19T00:25:55.616Z,249.36
2023-05-19T00:26:55.494Z,250.00
2023-05-19T00:27:56.559Z,247.03
2023-05-19T00:28:56.616Z,239.82
2023-05-19T00:29:55.650Z,238.60
2023-05-19T00:30:56.873Z,242.78
2023-05-19T00:31:56.000Z,236.80
2023-05-19T00:32:56.078Z,233.56
2023-05-19T00:33:57.083Z,226.22
2023-05-19T00:34:56.857Z,225.45
2023-05-19T00:35:55.874Z,223.96
2023-05-19T00:36:56.997Z,226.91
2023-05-19T00:37:56.981Z,226.86
2023-05-19T00:38:55.925Z,223.64
2023-05-19T00:39:56.948Z,223.86
2023-05-19T00:40:56.226Z,219.23
2023-05-19T00:41:56.027Z,210.38
2023-05-19T00:42:56.173Z,208.82
2023-05-19T00:43:57.173Z,209.06
2023-05-19T00:44:56.157Z,204.83
2023-05-19T00:45:56.292Z,201.72
2023-05-19T00:46:57.218Z,199.08
2023-05-19T00:47:57.374Z,207.25
2023-05-19T00:48:56.433Z,202.95
2023-05-19T00:49:57.452Z,208.57
2023-05-19T00:50:56.305Z,211.96
2023-05-19T00:51:56.472Z,219.12
2023-05-19T00:52:56.480Z,220.26
2023-05-19T00:53:57.369Z,214.30
2023-05-19T00:54:57.398Z,210.66
2023-05-19T00:55:56.461Z,201.77
2023-05-19T00:56:57.531Z,197.74
2023-05-19T00:57:57.596Z,200.79
2023-05-19T00:58:57.453Z,203.94
2023-05-19T00:59:57.659Z,197.32
2023-05-19T01:00:57.756Z,193.00
2023-05-19T01:01:57.618Z,190.02
2023-05-19T01:02:57.803Z,190.44
2023-05-19T01:03:57.039Z,188.00
2023-05-19T01:04:56.536Z,188.73
2023-05-19T01:05:57.565Z,186.19
2023-05-19T01:06:57.816Z,184.25
2023-05-19T01:07:57.766Z,177.96
2023-05-19T01:08:57.628Z,177.64
2023-05-19T01:09:56.770Z,176.20
2023-05-19T01:10:56.665Z,173.48
2023-05-19T01:11:57.690Z,174.35
2023-05-19T01:12:57.059Z,172.33
2023-05-19T01:13:57.811Z,171.85
2023-05-19T01:14:57.089Z,175.06
2023-05-19T01:15:58.154Z,174.13
2023-05-19T01:16:56.956Z,170.80
2023-05-19T01:17:57.935Z,168.67
2023-05-19T01:18:58.049Z,166.14
2023-05-19T01:19:58.065Z,163.97
2023-05-19T01:20:57.205Z,163.32
2023-05-19T01:21:57.248Z,163.35
2023-05-19T01:22:57.238Z,164.35
2023-05-19T01:23:57.151Z,162.63
2023-05-19T01:24:57.302Z,171.68
2023-05-19T01:25:57.356Z,181.06
2023-05-19T01:26:57.428Z,184.59
2023-05-19T01:27:57.324Z,195.99
2023-05-19T01:28:58.384Z,208.97
2023-05-19T01:29:57.679Z,223.95
2023-05-19T01:30:57.742Z,225.06
2023-05-19T01:31:57.595Z,213.26
2023-05-19T01:32:57.601Z,207.70
2023-05-19T01:33:57.801Z,205.49
2023-05-19T01:34:58.643Z,204.83
2023-05-19T01:35:58.739Z,203.65
2023-05-19T01:36:57.625Z,203.76
2023-05-19T01:37:57.649Z,198.23
2023-05-19T01:38:57.850Z,199.41
2023-05-19T01:39:57.763Z,201.34
2023-05-19T01:40:58.717Z,198.68
2023-05-19T01:41:57.786Z,191.57
2023-05-19T01:42:57.996Z,181.94
2023-05-19T01:43:58.048Z,179.95
2023-05-19T01:44:57.808Z,177.14
2023-05-19T01:45:57.972Z,177.69
2023-05-19T01:46:58.864Z,177.86
2023-05-19T01:47:59.020Z,178.33
2023-05-19T01:48:57.903Z,178.33
2023-05-19T01:49:58.082Z,177.88
2023-05-19T01:50:59.151Z,190.23
2023-05-19T01:51:58.069Z,204.95
2023-05-19T01:52:59.036Z,210.99
2023-05-19T01:53:59.179Z,222.79
2023-05-19T01:54:59.256Z,228.76
2023-05-19T01:55:58.376Z,230.77
2023-05-19T01:56:59.131Z,231.53
2023-05-19T01:57:58.116Z,232.44
2023-05-19T01:58:58.131Z,231.88
2023-05-19T01:59:58.187Z,230.65
2023-05-19T02:00:59.367Z,229.07
2023-05-19T02:01:58.291Z,228.29
2023-05-19T02:02:58.293Z,228.76
2023-05-19T02:03:58.261Z,232.03
2023-05-19T02:04:58.210Z,232.05
2023-05-19T02:05:59.385Z,230.79
2023-05-19T02:06:59.310Z,227.15
2023-05-19T02:07:59.326Z,222.14
2023-05-19T02:08:58.495Z,220.08
2023-05-19T02:09:58.380Z,220.34
2023-05-19T02:10:58.627Z,224.11
2023-05-19T02:11:58.473Z,230.51
2023-05-19T02:12:58.729Z,235.69
2023-05-19T02:13:58.457Z,237.07
2023-05-19T02:14:58.770Z,236.02
2023-05-19T02:15:58.778Z,237.40
2023-05-19T02:16:59.613Z,238.25
2023-05-19T02:17:58.846Z,240.73
2023-05-19T02:18:59.583Z,243.11
2023-05-19T02:19:58.518Z,242.80
2023-05-19T02:20:59.643Z,240.34
2023-05-19T02:21:58.871Z,233.41
2023-05-19T02:22:58.842Z,229.48
2023-05-19T02:23:59.918Z,231.74
2023-05-19T02:24:58.717Z,218.23
2023-05-19T02:25:58.941Z,207.23
2023-05-19T02:26:59.891Z,210.68
2023-05-19T02:27:58.891Z,201.40
2023-05-19T02:28:59.878Z,195.98
2023-05-19T02:29:59.029Z,190.21
2023-05-19T02:30:59.902Z,185.65
2023-05-19T02:31:59.106Z,179.85
2023-05-19T02:32:59.015Z,176.04
2023-05-19T02:33:59.076Z,175.47
2023-05-19T02:35:00.008Z,176.53
2023-05-19T02:36:00.037Z,178.55
2023-05-19T02:36:59.034Z,176.26
2023-05-19T02:37:59.336Z,176.61
2023-05-19T02:38:59.157Z,177.62
2023-05-19T02:40:00.267Z,177.88
2023-05-19T02:41:00.301Z,177.13
2023-05-19T02:42:00.474Z,173.07
2023-05-19T02:42:59.619Z,172.97
2023-05-19T02:43:59.443Z,171.07
2023-05-19T02:44:59.568Z,173.11
2023-05-19T02:46:00.627Z,175.59
2023-05-19T02:47:00.392Z,177.55
2023-05-19T02:48:00.662Z,179.60
2023-05-19T02:48:59.566Z,177.53
2023-05-19T02:50:00.756Z,176.22
2023-05-19T02:50:59.594Z,176.79
2023-05-19T02:51:59.627Z,178.10
2023-05-19T02:52:59.909Z,179.92
2023-05-19T02:53:59.709Z,181.46
2023-05-19T02:55:00.926Z,180.57
2023-05-19T02:56:00.811Z,180.93
2023-05-19T02:56:59.779Z,180.29
2023-05-19T02:57:59.868Z,181.45
2023-05-19T02:58:59.782Z,182.94
2023-05-19T02:59:59.918Z,183.33
2023-05-19T03:01:00.816Z,184.48
2023-05-19T03:02:00.098Z,187.42
2023-05-19T03:03:00.042Z,191.10
2023-05-19T03:04:00.986Z,190.70
2023-05-19T03:05:00.214Z,188.92
2023-05-19T03:06:01.177Z,187.17
2023-05-19T03:07:01.148Z,187.25
2023-05-19T03:08:00.218Z,186.24
2023-05-19T03:09:01.001Z,187.33
2023-05-19T03:10:01.058Z,190.62
2023-05-19T03:11:01.314Z,192.71
2023-05-19T03:12:01.111Z,191.35
2023-05-19T03:13:01.461Z,188.45
2023-05-19T03:14:00.243Z,191.12
2023-05-19T03:15:00.328Z,192.82
2023-05-19T03:16:01.379Z,195.35
2023-05-19T03:17:00.646Z,194.66
2023-05-19T03:18:01.724Z,194.73
2023-05-19T03:19:00.788Z,195.27
2023-05-19T03:20:00.520Z,197.63
2023-05-19T03:21:01.755Z,199.31
2023-05-19T03:22:01.485Z,198.60
2023-05-19T03:23:00.784Z,197.19
2023-05-19T03:24:01.583Z,199.20
2023-05-19T03:25:01.624Z,205.50
2023-05-19T03:26:00.715Z,208.13
2023-05-19T03:27:00.879Z,210.26
2023-05-19T03:28:00.618Z,199.83
2023-05-19T03:29:00.907Z,191.80
2023-05-19T03:30:00.693Z,186.78
2023-05-19T03:31:01.862Z,186.18
2023-05-19T03:32:01.856Z,189.58
2023-05-19T03:33:02.065Z,191.20
2023-05-19T03:34:01.977Z,191.07
2023-05-19T03:35:00.906Z,190.80
2023-05-19T03:36:01.211Z,190.46
2023-05-19T03:37:01.072Z,189.14
2023-05-19T03:38:01.219Z,191.41
2023-05-19T03:39:02.024Z,183.77
2023-05-19T03:40:01.317Z,181.98
2023-05-19T03:41:01.373Z,180.29
2023-05-19T03:42:02.179Z,180.52
2023-05-19T03:43:01.330Z,181.10
2023-05-19T03:44:02.348Z,183.68
2023-05-19T03:45:01.405Z,183.42
2023-05-19T03:46:02.514Z,185.72
2023-05-19T03:47:02.564Z,185.87
2023-05-19T03:48:02.448Z,187.31
2023-05-19T03:49:01.652Z,187.14
2023-05-19T03:50:01.389Z,190.93
2023-05-19T03:51:01.587Z,192.49
2023-05-19T03:52:02.603Z,196.44
2023-05-19T03:53:02.503Z,195.36
2023-05-19T03:54:02.503Z,198.75
2023-05-19T03:55:02.503Z,200.33
2023-05-19T03:56:01.521Z,200.34
2023-05-19T03:57:01.535Z,203.51
2023-05-19T03:58:01.578Z,204.80
2023-05-19T03:59:02.609Z,207.43
2023-05-19T04:00:01.615Z,207.68
2023-05-19T04:01:02.558Z,205.44
2023-05-19T04:02:02.643Z,199.52
2023-05-19T04:03:02.808Z,198.28
2023-05-19T04:04:02.734Z,199.06
2023-05-19T04:05:01.761Z,201.19
2023-05-19T04:06:01.768Z,201.23
2023-05-19T04:07:01.791Z,202.52
2023-05-19T04:08:01.815Z,206.17
2023-05-19T04:09:02.827Z,206.40
2023-05-19T04:10:02.901Z,206.26
2023-05-19T04:11:02.011Z,207.34
2023-05-19T04:12:01.930Z,207.76
2023-05-19T04:13:02.997Z,211.24
2023-05-19T04:14:03.047Z,210.86
2023-05-19T04:15:03.076Z,209.67
2023-05-19T04:16:03.135Z,210.30
2023-05-19T04:17:03.229Z,211.37
2023-05-19T04:18:02.317Z,211.87
2023-05-19T04:19:03.326Z,210.45
2023-05-19T04:20:03.239Z,210.20
2023-05-19T04:21:03.286Z,211.49
2023-05-19T04:22:03.342Z,209.66
2023-05-19T04:23:03.324Z,211.08
2023-05-19T04:24:03.317Z,209.11
2023-05-19T04:25:02.324Z,209.39
2023-05-19T04:26:02.349Z,212.41
2023-05-19T04:27:03.371Z,213.71
2023-05-19T04:28:02.593Z,214.81
2023-05-19T04:29:02.456Z,216.60
2023-05-19T04:30:02.444Z,220.83
2023-05-19T04:31:02.476Z,218.28
2023-05-19T04:32:03.487Z,218.75
2023-05-19T04:33:03.562Z,211.34
2023-05-19T04:34:02.559Z,210.97
2023-05-19T04:35:02.520Z,213.10
2023-05-19T04:36:03.578Z,212.57
2023-05-19T04:37:03.597Z,212.31
2023-05-19T04:38:03.638Z,217.05
2023-05-19T04:39:03.636Z,222.70
2023-05-19T04:40:03.716Z,230.33
2023-05-19T04:41:03.738Z,237.33
2023-05-19T04:42:02.743Z,237.51
2023-05-19T04:43:03.797Z,240.58
2023-05-19T04:44:03.800Z,238.16
2023-05-19T04:45:02.823Z,237.81
2023-05-19T04:46:03.874Z,239.11
2023-05-19T04:47:04.016Z,237.70
2023-05-19T04:48:04.008Z,229.22
2023-05-19T04:49:03.895Z,224.98
2023-05-19T04:50:03.986Z,224.34
2023-05-19T04:51:03.982Z,226.91
2023-05-19T04:52:04.045Z,228.16
2023-05-19T04:53:04.047Z,226.03
2023-05-19T04:54:03.038Z,226.28
2023-05-19T04:55:04.052Z,227.70
2023-05-19T04:56:04.079Z,223.61
2023-05-19T04:57:03.182Z,223.17
2023-05-19T04:58:04.166Z,224.71
2023-05-19T04:59:04.232Z,220.48
2023-05-19T05:00:03.245Z,222.11
2023-05-19T05:01:04.261Z,223.14
2023-05-19T05:02:04.345Z,227.43
2023-05-19T05:03:03.401Z,228.65
2023-05-19T05:04:04.438Z,237.00
2023-05-19T05:05:04.635Z,240.22
2023-05-19T05:06:03.392Z,239.01
2023-05-19T05:07:04.406Z,241.44
2023-05-19T05:08:03.502Z,235.63
2023-05-19T05:09:04.533Z,233.17
2023-05-19T05:10:04.494Z,241.76
2023-05-19T05:11:03.589Z,243.13
2023-05-19T05:12:04.543Z,237.57
2023-05-19T05:13:04.594Z,234.62
2023-05-19T05:14:04.590Z,235.20
2023-05-19T05:15:04.718Z,236.99
2023-05-19T05:16:04.708Z,242.81
2023-05-19T05:17:03.698Z,241.03
2023-05-19T05:18:03.802Z,237.67
2023-05-19T05:19:04.829Z,235.71
2023-05-19T05:20:03.839Z,228.05
2023-05-19T05:21:04.868Z,226.17
2023-05-19T05:22:04.932Z,225.30
2023-05-19T05:23:04.981Z,225.73
2023-05-19T05:24:03.955Z,217.32
2023-05-19T05:25:03.966Z,212.12
2023-05-19T05:26:05.169Z,210.57
2023-05-19T05:27:05.152Z,211.75
2023-05-19T05:28:05.170Z,209.05
2023-05-19T05:29:05.108Z,211.42
2023-05-19T05:30:04.082Z,210.86
2023-05-19T05:31:04.247Z,207.97
2023-05-19T05:32:04.432Z,207.80
2023-05-19T05:33:04.285Z,210.60
2023-05-19T05:34:04.207Z,209.27
2023-05-19T05:35:05.237Z,210.31
2023-05-19T05:36:05.281Z,212.16
2023-05-19T05:37:05.417Z,216.00
2023-05-19T05:38:05.405Z,216.11
2023-05-19T05:39:04.457Z,211.83
2023-05-19T05:40:05.422Z,212.62
2023-05-19T05:41:05.463Z,211.70
2023-05-19T05:42:05.503Z,207.80
2023-05-19T05:43:05.650Z,207.85
2023-05-19T05:44:05.659Z,210.67
2023-05-19T05:45:04.664Z,218.04
2023-05-19T05:46:05.696Z,219.76
2023-05-19T05:47:05.774Z,219.53
2023-05-19T05:48:04.772Z,218.70
2023-05-19T05:49:04.741Z,218.77
2023-05-19T05:50:04.786Z,219.22
2023-05-19T05:51:05.927Z,218.21
2023-05-19T05:52:06.802Z,222.03
2023-05-19T05:53:05.955Z,221.85
2023-05-19T05:54:06.020Z,221.31
2023-05-19T05:55:05.035Z,220.87
2023-05-19T05:56:06.022Z,219.55
2023-05-19T05:57:06.123Z,219.06
2023-05-19T05:58:06.127Z,226.08
2023-05-19T05:59:06.207Z,227.27
2023-05-19T06:00:05.242Z,229.76
2023-05-19T06:01:06.158Z,228.58
2023-05-19T06:02:05.229Z,233.96
2023-05-19T06:03:05.388Z,232.83
2023-05-19T06:04:05.234Z,231.31
2023-05-19T06:05:06.225Z,231.86
2023-05-19T06:06:06.251Z,228.44
2023-05-19T06:07:06.314Z,239.13
2023-05-19T06:08:05.465Z,247.90
2023-05-19T06:09:06.397Z,242.88
2023-05-19T06:10:05.598Z,241.99
2023-05-19T06:11:06.433Z,240.95
2023-05-19T06:12:06.594Z,239.36
2023-05-19T06:13:05.537Z,242.76
2023-05-19T06:14:06.606Z,246.73
2023-05-19T06:15:06.692Z,249.84
2023-05-19T06:16:06.750Z,244.83
2023-05-19T06:17:05.714Z,245.79
2023-05-19T06:18:06.861Z,248.66
2023-05-19T06:19:06.817Z,248.22
2023-05-19T06:20:05.790Z,244.56
2023-05-19T06:21:05.848Z,241.18
2023-05-19T06:22:05.992Z,240.56
2023-05-19T06:23:05.911Z,236.98
2023-05-19T06:24:07.141Z,232.65
2023-05-19T06:25:05.982Z,232.08
2023-05-19T06:26:06.060Z,236.32
2023-05-19T06:27:06.055Z,242.98
2023-05-19T06:28:07.161Z,247.69
2023-05-19T06:29:07.418Z,246.04
2023-05-19T06:30:07.310Z,248.57
2023-05-19T06:31:07.320Z,248.96
2023-05-19T06:32:06.298Z,246.77
2023-05-19T06:33:07.425Z,242.38
2023-05-19T06:34:06.374Z,241.84
2023-05-19T06:35:06.430Z,241.53
2023-05-19T06:36:06.392Z,241.67
2023-05-19T06:37:07.422Z,242.25
2023-05-19T06:38:07.468Z,242.26
2023-05-19T06:39:06.504Z,239.47
2023-05-19T06:40:07.468Z,241.27
2023-05-19T06:41:07.810Z,241.72
2023-05-19T06:42:06.568Z,243.10
2023-05-19T06:43:07.618Z,241.49
2023-05-19T06:44:06.998Z,241.93
2023-05-19T06:45:06.750Z,231.65
2023-05-19T06:46:06.848Z,228.09
2023-05-19T06:47:06.848Z,225.71
2023-05-19T06:48:06.910Z,226.22
2023-05-19T06:49:06.872Z,227.69
2023-05-19T06:50:08.005Z,225.28
2023-05-19T06:51:07.041Z,222.47
2023-05-19T06:52:08.063Z,223.91
2023-05-19T06:53:06.967Z,224.43
2023-05-19T06:54:08.030Z,225.81
2023-05-19T06:55:08.084Z,224.51
2023-05-19T06:56:07.152Z,227.40
2023-05-19T06:57:07.215Z,229.56
2023-05-19T06:58:07.892Z,232.28
2023-05-19T06:59:07.316Z,232.20
2023-05-19T07:00:07.350Z,233.50
2023-05-19T07:01:08.439Z,236.87
2023-05-19T07:02:08.562Z,238.26
2023-05-19T07:03:08.575Z,237.29
2023-05-19T07:04:08.599Z,235.11
2023-05-19T07:05:08.563Z,234.43
2023-05-19T07:06:08.668Z,229.31
2023-05-19T07:07:08.596Z,235.24
2023-05-19T07:08:08.700Z,238.45
2023-05-19T07:09:08.736Z,238.99
2023-05-19T07:10:07.693Z,240.00
2023-05-19T07:11:07.730Z,242.30
2023-05-19T07:12:08.765Z,239.59
2023-05-19T07:13:07.927Z,241.29
2023-05-19T07:14:08.885Z,246.06
2023-05-19T07:15:07.909Z,240.90
2023-05-19T07:16:07.945Z,238.43
2023-05-19T07:17:09.081Z,235.83
2023-05-19T07:18:08.049Z,231.30
2023-05-19T07:19:09.178Z,230.04
2023-05-19T07:20:08.143Z,230.77
2023-05-19T07:21:09.289Z,227.69
2023-05-19T07:22:09.251Z,223.41
2023-05-19T07:23:09.411Z,222.19
2023-05-19T07:24:09.276Z,222.31
2023-05-19T07:25:09.231Z,226.43
2023-05-19T07:26:09.302Z,222.87
2023-05-19T07:27:09.272Z,221.55
2023-05-19T07:28:08.272Z,226.13
2023-05-19T07:29:09.395Z,228.52
2023-05-19T07:30:08.461Z,228.43
2023-05-19T07:31:08.356Z,229.67
2023-05-19T07:32:08.566Z,230.84
2023-05-19T07:33:09.420Z,231.82
2023-05-19T07:34:08.669Z,230.67
2023-05-19T07:35:08.530Z,231.88
2023-05-19T07:36:09.577Z,233.21
2023-05-19T07:37:09.787Z,235.44
2023-05-19T07:38:09.672Z,234.34
2023-05-19T07:39:10.004Z,235.05
2023-05-19T07:40:09.822Z,232.35
2023-05-19T07:41:08.894Z,226.94
2023-05-19T07:42:09.187Z,225.36
2023-05-19T07:43:08.935Z,225.82
2023-05-19T07:44:09.045Z,228.67
2023-05-19T07:45:10.107Z,232.99
2023-05-19T07:46:10.231Z,231.57
2023-05-19T07:47:09.041Z,227.76
2023-05-19T07:48:10.154Z,229.18
2023-05-19T07:49:09.106Z,223.28
2023-05-19T07:50:10.113Z,219.70
2023-05-19T07:51:09.165Z,218.43
2023-05-19T07:52:10.182Z,217.15
2023-05-19T07:53:09.196Z,213.53
2023-05-19T07:54:09.289Z,215.52
2023-05-19T07:55:10.227Z,216.40
2023-05-19T07:56:10.271Z,214.43
2023-05-19T07:57:10.321Z,211.28
2023-05-19T07:58:09.362Z,216.90
2023-05-19T07:59:10.466Z,215.50
2023-05-19T08:00:09.440Z,214.44
2023-05-19T08:01:09.448Z,208.46
2023-05-19T08:02:10.728Z,208.93
2023-05-19T08:03:09.714Z,209.21
2023-05-19T08:04:11.903Z,209.56
2023-05-19T08:05:10.573Z,211.51
2023-05-19T08:06:09.677Z,211.08
2023-05-19T08:07:10.513Z,211.79
2023-05-19T08:08:10.745Z,209.29
2023-05-19T08:09:09.504Z,208.49
2023-05-19T08:10:10.507Z,205.22
2023-05-19T08:11:10.516Z,205.50
2023-05-19T08:12:10.519Z,208.66
2023-05-19T08:13:09.483Z,209.28
2023-05-19T08:14:10.466Z,205.22
2023-05-19T08:15:09.585Z,199.40
2023-05-19T08:16:10.498Z,193.77
2023-05-19T08:17:10.621Z,197.59
2023-05-19T08:18:09.561Z,197.97
2023-05-19T08:19:10.646Z,198.97
2023-05-19T08:20:09.636Z,201.17
2023-05-19T08:21:09.642Z,203.46
2023-05-19T08:22:09.415Z,204.69
2023-05-19T08:23:09.488Z,206.64
2023-05-19T08:24:10.423Z,215.22
2023-05-19T08:25:10.440Z,213.79
2023-05-19T08:26:10.414Z,216.65
2023-05-19T08:27:10.489Z,218.23
2023-05-19T08:28:10.504Z,217.48
2023-05-19T08:29:09.422Z,220.62
2023-05-19T08:30:10.364Z,216.33
2023-05-19T08:31:10.494Z,218.38
2023-05-19T08:32:12.439Z,218.66
2023-05-19T08:33:09.483Z,218.89
2023-05-19T08:34:10.356Z,218.94
2023-05-19T08:35:09.325Z,220.07
2023-05-19T08:36:09.398Z,226.16
2023-05-19T08:37:09.403Z,243.15
2023-05-19T08:38:10.316Z,238.61
2023-05-19T08:39:10.419Z,227.02
2023-05-19T08:40:10.325Z,218.58
2023-05-19T08:41:10.324Z,219.39
2023-05-19T08:42:09.288Z,218.14
2023-05-19T08:43:10.319Z,219.44
2023-05-19T08:44:10.286Z,224.51
2023-05-19T08:45:10.449Z,225.60
2023-05-19T08:46:09.325Z,212.92
2023-05-19T08:47:10.373Z,199.17
2023-05-19T08:48:09.373Z,198.01
2023-05-19T08:49:10.332Z,192.28
2023-05-19T08:50:09.240Z,169.65
2023-05-19T08:51:10.249Z,152.46
2023-05-19T08:52:09.323Z,151.83
2023-05-19T08:53:18.121Z,160.29
2023-05-19T08:54:10.287Z,160.56
2023-05-19T08:55:10.221Z,160.66
2023-05-19T08:56:10.235Z,142.45
2023-05-19T08:57:10.189Z,130.28
2023-05-19T08:58:10.158Z,101.90
2023-05-19T08:59:10.153Z,97.78
2023-05-19T09:00:10.224Z,97.35
2023-05-19T09:01:09.186Z,101.02
2023-05-19T09:02:10.206Z,112.35
2023-05-19T09:03:18.053Z,118.03
2023-05-19T09:04:10.338Z,114.85
2023-05-19T09:05:10.339Z,109.78
2023-05-19T09:06:09.212Z,115.78
2023-05-19T09:07:09.120Z,118.57
2023-05-19T09:08:09.219Z,119.39
2023-05-19T09:09:09.093Z,118.35
2023-05-19T09:10:09.114Z,113.38
2023-05-19T09:11:09.089Z,119.79
2023-05-19T09:12:09.109Z,119.70
2023-05-19T09:13:10.165Z,118.33
2023-05-19T09:14:10.066Z,110.18
2023-05-19T09:15:10.121Z,103.84
2023-05-19T09:16:10.056Z,102.83
2023-05-19T09:17:09.154Z,102.79
2023-05-19T09:18:09.136Z,108.53
2023-05-19T09:19:09.055Z,112.98
2023-05-19T09:20:09.050Z,117.01
2023-05-19T09:21:09.036Z,111.60
2023-05-19T09:22:10.136Z,125.50
2023-05-19T09:23:10.002Z,133.04
2023-05-19T09:24:10.195Z,145.61
2023-05-19T09:25:10.123Z,149.36
2023-05-19T09:26:09.997Z,146.63
2023-05-19T09:27:09.001Z,148.88
2023-05-19T09:28:08.977Z,141.30
2023-05-19T09:29:10.040Z,142.68
2023-05-19T09:30:10.078Z,137.68
2023-05-19T09:31:09.962Z,134.74
2023-05-19T09:32:09.970Z,134.29
2023-05-19T09:33:08.965Z,131.15
2023-05-19T09:34:08.942Z,131.24
2023-05-19T09:35:09.949Z,123.39
2023-05-19T09:36:09.111Z,129.09
2023-05-19T09:37:09.010Z,129.47
2023-05-19T09:38:10.027Z,123.21
2023-05-19T09:39:10.189Z,112.10
2023-05-19T09:40:10.555Z,120.75
2023-05-19T09:41:09.388Z,113.97
2023-05-19T09:42:10.192Z,129.15
2023-05-19T09:43:10.156Z,134.26
2023-05-19T09:44:09.183Z,133.63
2023-05-19T09:45:09.218Z,138.61
2023-05-19T09:46:11.183Z,114.42
2023-05-19T09:47:10.278Z,107.35
2023-05-19T09:48:09.325Z,93.75
2023-05-19T09:49:10.216Z,91.42
2023-05-19T09:50:10.228Z,78.36
2023-05-19T09:51:09.397Z,82.33
2023-05-19T09:52:10.068Z,83.69
2023-05-19T09:53:09.211Z,91.89
2023-05-19T09:54:09.232Z,100.24
2023-05-19T09:55:09.196Z,105.18
2023-05-19T09:56:10.474Z,98.45
2023-05-19T09:57:10.270Z,95.23
2023-05-19T09:58:12.110Z,100.59
2023-05-19T09:59:09.149Z,96.79
2023-05-19T10:00:09.195Z,94.16
2023-05-19T10:01:10.184Z,92.33
2023-05-19T10:02:09.144Z,78.69
2023-05-19T10:03:10.168Z,80.80
2023-05-19T10:04:10.347Z,88.95
2023-05-19T10:05:10.214Z,85.93
2023-05-19T10:06:10.156Z,78.17
2023-05-19T10:07:09.099Z,80.01
2023-05-19T10:08:10.092Z,86.05
2023-05-19T10:09:10.093Z,75.45
2023-05-19T10:10:10.162Z,77.07
2023-05-19T10:11:10.083Z,80.46
2023-05-19T10:12:10.170Z,69.12
2023-05-19T10:13:10.310Z,73.50
2023-05-19T10:14:09.053Z,72.78
2023-05-19T10:15:10.060Z,81.06
2023-05-19T10:16:09.288Z,79.08
2023-05-19T10:17:09.036Z,81.39
2023-05-19T10:18:09.099Z,77.20
2023-05-19T10:19:10.048Z,71.65
2023-05-19T10:20:09.007Z,68.05
2023-05-19T10:21:09.030Z,67.40
2023-05-19T10:22:08.984Z,71.43
2023-05-19T10:23:10.002Z,84.04
2023-05-19T10:24:11.479Z,89.63
2023-05-19T10:25:10.120Z,79.30
2023-05-19T10:26:09.981Z,60.72
2023-05-19T10:27:08.978Z,59.62
2023-05-19T10:28:09.949Z,60.98
2023-05-19T10:29:10.013Z,58.50
2023-05-19T10:30:11.498Z,58.71
2023-05-19T10:31:09.971Z,58.18
2023-05-19T10:32:08.950Z,59.26
2023-05-19T10:33:09.962Z,55.29
2023-05-19T10:34:09.038Z,56.54
2023-05-19T10:35:09.903Z,66.42
2023-05-19T10:36:09.913Z,63.29
2023-05-19T10:37:09.950Z,63.19
2023-05-19T10:38:09.894Z,56.05
2023-05-19T10:39:08.876Z,55.79
2023-05-19T10:40:08.892Z,50.89
2023-05-19T10:41:10.037Z,52.41
2023-05-19T10:42:09.849Z,58.49
2023-05-19T10:43:09.903Z,44.96
2023-05-19T10:44:09.846Z,51.84
2023-05-19T10:45:08.840Z,65.79
2023-05-19T10:46:09.840Z,88.93
2023-05-19T10:47:08.882Z,72.96
2023-05-19T10:48:08.851Z,58.38
2023-05-19T10:49:08.917Z,51.53
2023-05-19T10:50:08.825Z,49.02
2023-05-19T10:51:10.354Z,47.68
2023-05-19T10:52:08.780Z,43.18
2023-05-19T10:53:09.796Z,40.14
2023-05-19T10:54:08.783Z,41.49
2023-05-19T10:55:09.851Z,49.44
2023-05-19T10:56:09.793Z,53.70
2023-05-19T10:57:08.786Z,59.83
2023-05-19T10:58:09.824Z,54.41
2023-05-19T10:59:09.738Z,42.08
2023-05-19T11:00:09.898Z,43.39
2023-05-19T11:01:09.792Z,42.01
2023-05-19T11:02:09.793Z,44.58
2023-05-19T11:03:08.761Z,47.96
2023-05-19T11:04:09.796Z,44.09
2023-05-19T11:05:09.718Z,45.76
2023-05-19T11:06:08.694Z,50.51
2023-05-19T11:07:09.819Z,54.37
2023-05-19T11:08:09.013Z,64.03
2023-05-19T11:09:08.855Z,78.07
2023-05-19T11:10:08.847Z,122.00
2023-05-19T11:11:09.873Z,97.34
2023-05-19T11:12:10.019Z,90.12
2023-05-19T11:13:09.116Z,92.87
2023-05-19T11:14:09.953Z,89.25
2023-05-19T11:15:09.006Z,96.76
2023-05-19T11:16:10.055Z,107.65
2023-05-19T11:17:10.054Z,101.00
2023-05-19T11:18:09.100Z,94.56
2023-05-19T11:19:09.272Z,86.68
2023-05-19T11:20:09.269Z,77.19
2023-05-19T11:21:10.223Z,75.46
2023-05-19T11:22:09.257Z,60.25
2023-05-19T11:23:09.732Z,61.00
2023-05-19T11:24:10.365Z,55.49
2023-05-19T11:25:10.357Z,62.46
2023-05-19T11:26:10.381Z,65.05
2023-05-19T11:27:09.436Z,72.95
2023-05-19T11:28:09.463Z,78.82
2023-05-19T11:29:09.609Z,78.93
2023-05-19T11:30:09.826Z,76.80
2023-05-19T11:31:10.589Z,80.03
2023-05-19T11:32:09.667Z,77.89
2023-05-19T11:33:09.698Z,79.26
2023-05-19T11:34:09.756Z,81.49
2023-05-19T11:35:09.742Z,80.92
2023-05-19T11:36:10.919Z,93.86
2023-05-19T11:37:10.799Z,98.84
2023-05-19T11:38:10.879Z,104.85
2023-05-19T11:39:10.880Z,116.62
2023-05-19T11:40:10.910Z,102.05
2023-05-19T11:41:10.964Z,106.51
2023-05-19T11:42:11.304Z,107.88
2023-05-19T11:43:10.068Z,95.14
2023-05-19T11:44:10.095Z,92.36
2023-05-19T11:45:10.185Z,88.03
2023-05-19T11:46:11.220Z,85.90
2023-05-19T11:47:11.200Z,93.52
2023-05-19T11:48:10.342Z,106.32
2023-05-19T11:49:10.275Z,105.90
2023-05-19T11:50:10.345Z,113.50
2023-05-19T11:51:10.613Z,115.54
2023-05-19T11:52:11.336Z,115.42
2023-05-19T11:53:11.665Z,116.74
2023-05-19T11:54:11.445Z,116.36
2023-05-19T11:55:10.452Z,114.13
2023-05-19T11:56:10.638Z,120.63
2023-05-19T11:57:11.511Z,111.14
2023-05-19T11:58:10.605Z,104.35
2023-05-19T11:59:10.841Z,103.43
2023-05-19T12:00:11.802Z,101.35
2023-05-19T12:01:11.917Z,105.57
2023-05-19T12:02:11.784Z,102.69
2023-05-19T12:03:11.925Z,98.67
2023-05-19T12:04:10.856Z,99.74
2023-05-19T12:05:11.025Z,91.75
2023-05-19T12:06:12.266Z,79.58
2023-05-19T12:07:11.996Z,74.70
2023-05-19T12:08:11.035Z,68.18
2023-05-19T12:09:11.072Z,66.65
2023-05-19T12:10:11.372Z,64.24
2023-05-19T12:11:11.256Z,57.92
2023-05-19T12:12:12.183Z,66.98
2023-05-19T12:13:11.453Z,78.60
2023-05-19T12:14:12.311Z,89.73
2023-05-19T12:15:12.310Z,78.29
2023-05-19T12:16:12.465Z,81.37
2023-05-19T12:17:11.447Z,82.24
2023-05-19T12:18:11.414Z,87.62
2023-05-19T12:19:12.723Z,84.55
2023-05-19T12:20:12.737Z,74.31
2023-05-19T12:21:11.745Z,77.85
2023-05-19T12:22:11.529Z,83.52
2023-05-19T12:23:11.743Z,75.16
2023-05-19T12:24:11.642Z,80.40
2023-05-19T12:25:11.695Z,80.94
2023-05-19T12:26:11.650Z,81.32
2023-05-19T12:27:11.704Z,91.77
2023-05-19T12:28:12.747Z,102.41
2023-05-19T12:29:12.789Z,114.77
2023-05-19T12:30:12.746Z,115.55
2023-05-19T12:31:13.136Z,123.85
2023-05-19T12:32:11.878Z,110.69
2023-05-19T12:33:12.952Z,113.60